createdAt,value
2023-05-06T00:01:54.150Z,101223.84
2023-05-06T00:04:30.613Z,101220.38
2023-05-06T00:06:57.924Z,101219.38
2023-05-06T00:09:24.895Z,101212.38
2023-05-06T00:11:55.378Z,101218.63
2023-05-06T00:14:29.777Z,101213.59
2023-05-06T00:16:56.825Z,101206.31
2023-05-06T00:19:23.860Z,101204.38
2023-05-06T00:21:50.805Z,101213.63
2023-05-06T00:24:36.188Z,101207.59
2023-05-06T00:27:11.861Z,101202.81
2023-05-06T00:29:39.925Z,101204.75
2023-05-06T00:32:06.959Z,101199.72
2023-05-06T00:34:34.062Z,101201.44
2023-05-06T00:37:01.028Z,101194.16
2023-05-06T00:39:28.076Z,101190.44
2023-05-06T00:42:16.958Z,101194.16
2023-05-06T00:44:46.750Z,101195.38
2023-05-06T00:47:16.040Z,101203.22
2023-05-06T00:49:43.156Z,101203.22
2023-05-06T00:52:10.121Z,101201.47
2023-05-06T00:54:37.072Z,101200.97
2023-05-06T00:57:05.503Z,101203.09
2023-05-06T00:59:33.525Z,101197.94
2023-05-06T01:02:00.748Z,101202.03
2023-05-06T01:04:29.987Z,101200.06
2023-05-06T01:07:12.912Z,101199.66
2023-05-06T01:09:52.265Z,101203.84
2023-05-06T01:12:36.310Z,101191.06
2023-05-06T01:15:12.628Z,101197.38
2023-05-06T01:17:44.034Z,101198.19
2023-05-06T01:20:12.542Z,101194.59
2023-05-06T01:22:43.903Z,101198.75
2023-05-06T01:25:21.632Z,101194.19
2023-05-06T01:27:49.041Z,101191.75
2023-05-06T01:30:18.812Z,101197.41
2023-05-06T01:33:06.209Z,101193.78
2023-05-06T01:35:48.184Z,101198.06
2023-05-06T01:38:37.623Z,101178.66
2023-05-06T01:41:07.013Z,101185.03
2023-05-06T01:43:49.898Z,101195.47
2023-05-06T01:46:31.836Z,101192.34
2023-05-06T01:49:04.321Z,101190.69
2023-05-06T01:51:38.508Z,101196.44
2023-05-06T01:54:05.429Z,101194.00
2023-05-06T01:56:32.374Z,101190.50
2023-05-06T01:58:59.941Z,101196.84
2023-05-06T02:01:27.207Z,101194.47
2023-05-06T02:03:54.385Z,101197.97
2023-05-06T02:06:21.692Z,101192.31
2023-05-06T02:08:49.652Z,101188.13
2023-05-06T02:11:16.774Z,101191.91
2023-05-06T02:13:44.007Z,101191.13
2023-05-06T02:16:13.620Z,101183.00
2023-05-06T02:18:41.684Z,101187.53
2023-05-06T02:21:10.324Z,101175.00
2023-05-06T02:23:37.221Z,101177.53
2023-05-06T02:26:04.736Z,101171.91
2023-05-06T02:28:31.604Z,101168.44
2023-05-06T02:30:59.311Z,101176.13
2023-05-06T02:33:27.734Z,101169.88
2023-05-06T02:35:55.230Z,101173.28
2023-05-06T02:38:22.362Z,101171.63
2023-05-06T02:40:49.172Z,101177.47
2023-05-06T02:43:23.592Z,101172.78
2023-05-06T02:45:55.371Z,101171.22
2023-05-06T02:48:22.334Z,101168.69
2023-05-06T02:50:49.373Z,101174.31
2023-05-06T02:53:16.371Z,101173.75
2023-05-06T02:55:43.444Z,101172.53
2023-05-06T02:58:10.556Z,101180.63
2023-05-06T03:00:37.753Z,101177.34
2023-05-06T03:03:07.706Z,101178.50
2023-05-06T03:05:34.817Z,101174.06
2023-05-06T03:08:02.810Z,101164.69
2023-05-06T03:10:35.612Z,101176.72
2023-05-06T03:13:02.550Z,101167.22
2023-05-06T03:15:29.382Z,101171.06
2023-05-06T03:17:56.220Z,101173.00
2023-05-06T03:20:37.883Z,101170.09
2023-05-06T03:23:18.982Z,101160.63
2023-05-06T03:25:57.322Z,101169.28
2023-05-06T03:28:24.733Z,101172.03
2023-05-06T03:30:51.726Z,101168.56
2023-05-06T03:33:22.006Z,101173.78
2023-05-06T03:35:48.993Z,101173.31
2023-05-06T03:38:21.168Z,101178.56
2023-05-06T03:40:48.546Z,101172.13
2023-05-06T03:43:15.516Z,101172.34
2023-05-06T03:45:43.234Z,101173.78
2023-05-06T03:48:10.497Z,101172.78
2023-05-06T03:50:38.234Z,101180.63
2023-05-06T03:53:05.607Z,101181.88
2023-05-06T03:55:32.930Z,101182.28
2023-05-06T03:58:00.328Z,101191.25
2023-05-06T04:00:27.534Z,101183.78
2023-05-06T04:02:54.745Z,101181.00
2023-05-06T04:05:21.754Z,101185.44
2023-05-06T04:08:06.572Z,101181.78
2023-05-06T04:10:33.567Z,101188.31
2023-05-06T04:13:00.463Z,101184.28
2023-05-06T04:15:35.332Z,101176.56
2023-05-06T04:18:08.281Z,101190.34
2023-05-06T04:20:35.485Z,101187.00
2023-05-06T04:23:03.313Z,101181.09
2023-05-06T04:25:30.598Z,101190.84
2023-05-06T04:27:57.544Z,101193.44
2023-05-06T04:30:24.887Z,101200.53
2023-05-06T04:32:52.682Z,101204.00
2023-05-06T04:35:19.890Z,101199.00
2023-05-06T04:37:46.894Z,101192.38
2023-05-06T04:40:14.129Z,101197.56
2023-05-06T04:42:46.774Z,101199.28
2023-05-06T04:45:13.909Z,101196.66
2023-05-06T04:47:40.975Z,101196.84
2023-05-06T04:50:11.732Z,101195.16
2023-05-06T04:52:38.856Z,101199.09
2023-05-06T04:55:06.298Z,101205.69
2023-05-06T04:57:33.483Z,101202.03
2023-05-06T05:00:00.696Z,101205.41
2023-05-06T05:02:27.793Z,101205.09
2023-05-06T05:04:55.062Z,101207.88
2023-05-06T05:07:22.053Z,101204.09
2023-05-06T05:09:49.067Z,101193.22
2023-05-06T05:12:16.288Z,101210.78
2023-05-06T05:14:43.254Z,101207.31
2023-05-06T05:17:10.414Z,101209.19
2023-05-06T05:19:37.619Z,101209.31
2023-05-06T05:22:04.786Z,101211.97
2023-05-06T05:24:31.742Z,101206.19
2023-05-06T05:26:58.698Z,101200.66
2023-05-06T05:29:25.754Z,101206.50
2023-05-06T05:31:56.474Z,101199.88
2023-05-06T05:34:23.685Z,101204.38
2023-05-06T05:36:51.411Z,101202.66
2023-05-06T05:39:23.267Z,101205.19
2023-05-06T05:41:51.161Z,101200.00
2023-05-06T05:44:18.206Z,101204.38
2023-05-06T05:46:45.444Z,101205.75
2023-05-06T05:49:12.420Z,101206.50
2023-05-06T05:51:41.382Z,101207.81
2023-05-06T05:54:08.406Z,101209.53
2023-05-06T05:56:35.521Z,101213.56
2023-05-06T05:59:02.556Z,101215.38
2023-05-06T06:01:29.619Z,101206.91
2023-05-06T06:03:56.977Z,101210.28
2023-05-06T06:06:24.773Z,101210.63
2023-05-06T06:08:53.211Z,101209.78
2023-05-06T06:11:21.840Z,101210.88
2023-05-06T06:13:49.173Z,101213.38
2023-05-06T06:16:16.154Z,101212.28
2023-05-06T06:18:43.190Z,101219.94
2023-05-06T06:21:10.622Z,101222.63
2023-05-06T06:23:46.574Z,101216.41
2023-05-06T06:26:13.762Z,101217.84
2023-05-06T06:28:40.880Z,101221.28
2023-05-06T06:31:08.110Z,101219.22
2023-05-06T06:33:35.132Z,101218.94
2023-05-06T06:36:02.430Z,101221.53
2023-05-06T06:38:29.461Z,101234.00
2023-05-06T06:40:56.466Z,101232.09
2023-05-06T06:43:25.048Z,101235.72
2023-05-06T06:45:56.890Z,101238.56
2023-05-06T06:48:23.850Z,101232.97
2023-05-06T06:50:52.388Z,101234.88
2023-05-06T06:53:22.930Z,101239.03
2023-05-06T06:55:56.876Z,101243.09
2023-05-06T06:58:23.986Z,101246.78
2023-05-06T07:00:51.039Z,101244.69
2023-05-06T07:03:21.610Z,101250.16
2023-05-06T07:05:52.428Z,101248.84
2023-05-06T07:08:21.652Z,101246.41
2023-05-06T07:10:49.090Z,101241.06
2023-05-06T07:13:20.541Z,101243.63
2023-05-06T07:15:47.448Z,101242.22
2023-05-06T07:18:14.645Z,101242.28
2023-05-06T07:20:41.786Z,101241.03
2023-05-06T07:23:19.707Z,101246.53
2023-05-06T07:25:46.756Z,101241.50
2023-05-06T07:28:16.185Z,101243.28
2023-05-06T07:30:43.787Z,101247.06
2023-05-06T07:33:10.794Z,101244.97
2023-05-06T07:35:38.082Z,101242.06
2023-05-06T07:38:05.142Z,101247.06
2023-05-06T07:40:32.161Z,101243.22
2023-05-06T07:42:59.346Z,101247.94
2023-05-06T07:45:26.505Z,101249.63
2023-05-06T07:47:53.753Z,101257.81
2023-05-06T07:50:21.032Z,101251.25
2023-05-06T07:52:49.755Z,101252.97
2023-05-06T07:55:16.754Z,101253.91
2023-05-06T07:57:46.799Z,101250.56
2023-05-06T08:00:14.414Z,101259.97
2023-05-06T08:02:50.089Z,101248.97
2023-05-06T08:05:18.244Z,101249.84
2023-05-06T08:07:45.177Z,101256.22
2023-05-06T08:10:12.043Z,101254.94
2023-05-06T08:12:39.492Z,101254.50
2023-05-06T08:15:07.351Z,101263.09
2023-05-06T08:17:34.370Z,101254.91
2023-05-06T08:20:01.280Z,101267.13
2023-05-06T08:22:37.669Z,101247.91
2023-05-06T08:25:04.924Z,101259.28
2023-05-06T08:27:33.224Z,101257.00
2023-05-06T08:30:00.392Z,101260.75
2023-05-06T08:32:27.657Z,101252.25
2023-05-06T08:34:56.914Z,101251.25
2023-05-06T08:37:24.050Z,101247.13
2023-05-06T08:39:50.941Z,101246.44
2023-05-06T08:42:18.229Z,101254.41
2023-05-06T08:44:45.330Z,101252.28
2023-05-06T08:47:12.800Z,101255.09
2023-05-06T08:49:42.384Z,101257.06
2023-05-06T08:52:09.451Z,101246.81
2023-05-06T08:54:38.808Z,101249.31
2023-05-06T08:57:06.815Z,101246.22
2023-05-06T08:59:34.847Z,101251.91
2023-05-06T09:02:02.789Z,101259.78
2023-05-06T09:04:30.532Z,101248.56
2023-05-06T09:07:00.621Z,101245.69
2023-05-06T09:09:27.955Z,101237.09
2023-05-06T09:11:57.907Z,101244.44
2023-05-06T09:14:24.918Z,101241.81
2023-05-06T09:16:53.545Z,101245.69
2023-05-06T09:19:22.946Z,101249.50
2023-05-06T09:21:51.961Z,101248.63
2023-05-06T09:24:19.884Z,101245.28
2023-05-06T09:26:47.617Z,101247.88
2023-05-06T09:29:14.825Z,101244.22
2023-05-06T09:31:45.340Z,101248.66
2023-05-06T09:34:13.242Z,101250.97
2023-05-06T09:36:43.407Z,101239.59
2023-05-06T09:39:11.433Z,101247.81
2023-05-06T09:41:38.439Z,101245.53
2023-05-06T09:44:06.838Z,101246.03
2023-05-06T09:46:33.886Z,101247.00
2023-05-06T09:49:00.847Z,101255.63
2023-05-06T09:51:31.770Z,101249.66
2023-05-06T09:54:01.233Z,101248.13
2023-05-06T09:56:30.096Z,101244.00
2023-05-06T09:58:59.001Z,101241.53
2023-05-06T10:01:36.078Z,101237.13
2023-05-06T10:04:09.093Z,101232.13
2023-05-06T10:06:40.009Z,101233.16
2023-05-06T10:09:08.779Z,101234.44
2023-05-06T10:11:36.706Z,101229.88
2023-05-06T10:14:05.108Z,101226.72
2023-05-06T10:16:36.155Z,101223.31
2023-05-06T10:19:07.719Z,101222.59
2023-05-06T10:21:40.007Z,101226.38
2023-05-06T10:24:11.859Z,101218.38
2023-05-06T10:26:41.388Z,101222.94
2023-05-06T10:29:12.064Z,101215.38
2023-05-06T10:31:52.339Z,101227.19
2023-05-06T10:34:24.944Z,101217.53
2023-05-06T10:36:57.766Z,101217.97
2023-05-06T10:39:32.657Z,101222.91
2023-05-06T10:41:59.910Z,101216.03
2023-05-06T10:44:58.032Z,101221.50
2023-05-06T10:47:40.017Z,101217.09
2023-05-06T10:50:30.732Z,101211.88
2023-05-06T10:52:59.483Z,101205.44
2023-05-06T10:55:38.314Z,101205.72
2023-05-06T10:58:11.388Z,101197.31
2023-05-06T11:00:38.993Z,101201.25
2023-05-06T11:03:12.108Z,101202.25
2023-05-06T11:05:50.247Z,101193.66
2023-05-06T11:08:23.900Z,101199.56
2023-05-06T11:11:01.032Z,101195.69
2023-05-06T11:13:30.588Z,101193.47
2023-05-06T11:16:03.240Z,101188.13
2023-05-06T11:18:32.244Z,101184.19
2023-05-06T11:21:03.069Z,101189.28
2023-05-06T11:23:43.064Z,101189.66
2023-05-06T11:26:11.420Z,101186.50
2023-05-06T11:28:39.636Z,101181.72
2023-05-06T11:31:06.636Z,101178.34
2023-05-06T11:33:36.923Z,101185.66
2023-05-06T11:36:05.319Z,101177.31
2023-05-06T11:38:43.038Z,101169.41
2023-05-06T11:41:10.610Z,101164.97
2023-05-06T11:43:37.994Z,101175.34
2023-05-06T11:46:13.959Z,101169.00
2023-05-06T11:48:41.208Z,101168.03
2023-05-06T11:51:08.759Z,101184.22
2023-05-06T11:53:35.945Z,101166.50
2023-05-06T11:56:03.411Z,101168.66
2023-05-06T11:58:31.786Z,101167.41
2023-05-06T12:01:04.203Z,101162.59
2023-05-06T12:03:36.708Z,101161.84
2023-05-06T12:06:05.384Z,101146.38
2023-05-06T12:08:34.107Z,101153.88
2023-05-06T12:11:08.355Z,101152.34
2023-05-06T12:13:37.178Z,101157.53
2023-05-06T12:16:06.417Z,101144.69
2023-05-06T12:18:33.970Z,101147.38
2023-05-06T12:21:04.433Z,101141.34
2023-05-06T12:23:31.908Z,101141.75
2023-05-06T12:26:04.422Z,101134.63
2023-05-06T12:28:33.110Z,101134.28
2023-05-06T12:31:01.127Z,101143.13
2023-05-06T12:33:28.330Z,101141.63
2023-05-06T12:36:07.617Z,101140.59
2023-05-06T12:38:34.793Z,101143.63
2023-05-06T12:41:02.040Z,101140.50
2023-05-06T12:43:41.497Z,101136.59
2023-05-06T12:46:09.779Z,101136.91
2023-05-06T12:48:36.958Z,101121.78
2023-05-06T12:51:31.259Z,101130.13
2023-05-06T12:53:58.417Z,101117.69
2023-05-06T12:56:25.419Z,101116.69
2023-05-06T12:59:10.684Z,101122.38
2023-05-06T13:01:39.364Z,101117.44
2023-05-06T13:04:17.028Z,101116.81
2023-05-06T13:06:44.979Z,101116.09
2023-05-06T13:09:15.192Z,101119.53
2023-05-06T13:11:49.470Z,101116.31
2023-05-06T13:14:19.132Z,101117.13
2023-05-06T13:16:47.806Z,101108.50
2023-05-06T13:19:25.139Z,101098.19
2023-05-06T13:22:00.861Z,101106.31
2023-05-06T13:24:29.038Z,101095.28
2023-05-06T13:27:01.686Z,101098.28
2023-05-06T13:29:30.131Z,101089.47
2023-05-06T13:31:57.230Z,101085.31
2023-05-06T13:34:24.551Z,101087.63
2023-05-06T13:36:52.458Z,101078.09
2023-05-06T13:39:21.675Z,101078.59
2023-05-06T13:41:50.492Z,101073.81
2023-05-06T13:44:19.469Z,101071.78
2023-05-06T13:46:50.397Z,101068.66
2023-05-06T13:49:19.303Z,101058.97
2023-05-06T13:51:46.335Z,101065.31
2023-05-06T13:54:13.312Z,101060.56
2023-05-06T13:56:41.109Z,101062.63
2023-05-06T13:59:10.661Z,101060.88
2023-05-06T14:01:38.336Z,101055.31
2023-05-06T14:04:06.594Z,101046.41
2023-05-06T14:06:34.823Z,101053.16
2023-05-06T14:09:01.968Z,101053.72
2023-05-06T14:11:29.096Z,101051.09
2023-05-06T14:14:00.258Z,101046.63
2023-05-06T14:16:30.059Z,101049.88
2023-05-06T14:18:57.030Z,101040.22
2023-05-06T14:21:24.119Z,101043.91
2023-05-06T14:23:51.064Z,101041.94
2023-05-06T14:26:25.912Z,101036.88
2023-05-06T14:29:01.918Z,101033.56
2023-05-06T14:31:29.945Z,101030.31
2023-05-06T14:33:56.975Z,101033.88
2023-05-06T14:36:23.894Z,101035.16
2023-05-06T14:38:50.987Z,101031.94
2023-05-06T14:41:17.912Z,101039.75
2023-05-06T14:43:45.010Z,101033.69
2023-05-06T14:46:12.477Z,101030.81
2023-05-06T14:48:40.627Z,101029.97
2023-05-06T14:51:07.815Z,101028.28
2023-05-06T14:53:47.027Z,101025.56
2023-05-06T14:56:14.486Z,101026.44
2023-05-06T14:58:42.074Z,101034.97
2023-05-06T15:01:15.303Z,101035.78
2023-05-06T15:03:43.086Z,101032.81
2023-05-06T15:06:09.988Z,101030.63
2023-05-06T15:08:37.267Z,101024.69
2023-05-06T15:11:08.310Z,101024.94
2023-05-06T15:13:38.202Z,101031.63
2023-05-06T15:16:05.417Z,101039.03
2023-05-06T15:18:38.541Z,101034.72
2023-05-06T15:21:05.429Z,101028.72
2023-05-06T15:23:32.434Z,101026.47
2023-05-06T15:25:59.459Z,101031.56
2023-05-06T15:28:26.413Z,101023.31
2023-05-06T15:30:53.205Z,101030.50
2023-05-06T15:33:20.129Z,101027.78
2023-05-06T15:35:47.022Z,101031.22
2023-05-06T15:38:14.017Z,101029.72
2023-05-06T15:40:41.306Z,101031.38
2023-05-06T15:43:09.218Z,101027.13
2023-05-06T15:45:36.580Z,101030.88
2023-05-06T15:48:03.777Z,101033.59
2023-05-06T15:50:34.166Z,101022.84
2023-05-06T15:53:03.276Z,101022.38
2023-05-06T15:55:35.268Z,101019.69
2023-05-06T15:58:09.367Z,101018.63
2023-05-06T16:00:37.656Z,101011.13
2023-05-06T16:03:08.814Z,101013.91
2023-05-06T16:05:37.156Z,101004.88
2023-05-06T16:08:05.087Z,101011.84
2023-05-06T16:10:32.025Z,101013.31
2023-05-06T16:13:00.496Z,101014.19
2023-05-06T16:15:27.741Z,101011.69
2023-05-06T16:17:54.722Z,101013.63
2023-05-06T16:20:21.894Z,101006.31
2023-05-06T16:22:52.011Z,101006.94
2023-05-06T16:25:22.636Z,101013.19
2023-05-06T16:30:37.250Z,101002.91
2023-05-06T16:33:05.587Z,101006.88
2023-05-06T16:35:33.379Z,100999.28
2023-05-06T16:38:00.316Z,100994.81
2023-05-06T16:40:28.193Z,100995.31
2023-05-06T16:45:25.476Z,100984.06
2023-05-06T16:47:54.022Z,100984.25
2023-05-06T16:50:26.322Z,100980.94
2023-05-06T16:52:54.364Z,100980.78
2023-05-06T16:55:22.291Z,100985.72
2023-05-06T16:57:50.632Z,100982.63
2023-05-06T17:02:52.873Z,100985.16
2023-05-06T17:05:22.039Z,100988.53
2023-05-06T17:07:50.229Z,100987.91
2023-05-06T17:10:18.118Z,100989.53
2023-05-06T17:12:45.237Z,100996.50
2023-05-06T17:15:12.612Z,100996.59
2023-05-06T17:17:40.822Z,100987.59
2023-05-06T17:20:08.897Z,100998.69
2023-05-06T17:22:39.036Z,100985.50
2023-05-06T17:25:06.521Z,100980.53
2023-05-06T17:27:33.873Z,100987.91
2023-05-06T17:30:02.284Z,100978.06
2023-05-06T17:32:31.679Z,100980.09
2023-05-06T17:35:06.794Z,100982.50
2023-05-06T17:37:42.325Z,100979.63
2023-05-06T17:40:13.573Z,100983.22
2023-05-06T17:42:44.415Z,100988.31
2023-05-06T17:45:13.364Z,100987.63
2023-05-06T17:47:40.416Z,100985.25
2023-05-06T17:50:07.772Z,100990.66
2023-05-06T17:52:36.037Z,100989.53
2023-05-06T17:55:14.764Z,100997.94
2023-05-06T17:57:44.529Z,100990.13
2023-05-06T18:00:16.958Z,100991.44
2023-05-06T18:03:03.326Z,100998.31
2023-05-06T18:05:35.124Z,101010.31
2023-05-06T18:08:02.345Z,101005.69
2023-05-06T18:10:31.910Z,101001.56
2023-05-06T18:13:01.888Z,101010.50
2023-05-06T18:15:28.940Z,101011.03
2023-05-06T18:18:04.692Z,101007.19
2023-05-06T18:20:35.404Z,101009.66
2023-05-06T18:23:03.810Z,101012.81
2023-05-06T18:25:30.850Z,101013.75
2023-05-06T18:27:58.284Z,101018.06
2023-05-06T18:30:25.501Z,101019.88
2023-05-06T18:32:54.558Z,101013.41
2023-05-06T18:35:23.590Z,101020.56
2023-05-06T18:37:51.970Z,101016.84
2023-05-06T18:40:19.230Z,101030.06
2023-05-06T18:42:47.441Z,101023.22
2023-05-06T18:45:14.638Z,101025.03
2023-05-06T18:47:45.727Z,101024.66
2023-05-06T18:50:13.608Z,101025.41
2023-05-06T18:52:40.796Z,101022.91
2023-05-06T18:55:09.885Z,101023.84
2023-05-06T18:57:39.295Z,101029.91
2023-05-06T19:00:07.445Z,101019.31
2023-05-06T19:02:34.674Z,101034.75
2023-05-06T19:05:01.942Z,101035.16
2023-05-06T19:07:29.149Z,101044.47
2023-05-06T19:09:56.502Z,101039.72
2023-05-06T19:12:24.946Z,101048.06
2023-05-06T19:14:52.867Z,101034.47
2023-05-06T19:17:23.299Z,101042.88
2023-05-06T19:19:53.154Z,101044.09
2023-05-06T19:22:20.136Z,101047.31
2023-05-06T19:24:47.229Z,101049.81
2023-05-06T19:27:14.281Z,101047.47
2023-05-06T19:29:41.921Z,101050.50
2023-05-06T19:32:09.416Z,101061.03
2023-05-06T19:34:39.504Z,101055.56
2023-05-06T19:37:06.599Z,101057.41
2023-05-06T19:39:39.465Z,101056.44
2023-05-06T19:42:07.431Z,101064.72
2023-05-06T19:44:38.145Z,101056.63
2023-05-06T19:47:16.062Z,101064.22
2023-05-06T19:49:43.919Z,101062.00
2023-05-06T19:52:12.176Z,101068.88
2023-05-06T19:54:40.176Z,101064.75
2023-05-06T19:57:07.214Z,101072.34
2023-05-06T19:59:34.732Z,101076.03
2023-05-06T20:02:02.457Z,101068.88
2023-05-06T20:04:34.781Z,101077.34
2023-05-06T20:07:02.141Z,101076.75
2023-05-06T20:09:29.369Z,101076.31
2023-05-06T20:11:57.602Z,101076.94
2023-05-06T20:14:24.844Z,101077.06
2023-05-06T20:16:52.155Z,101077.50
2023-05-06T20:19:24.165Z,101081.78
2023-05-06T20:21:52.427Z,101082.28
2023-05-06T20:24:19.434Z,101077.31
2023-05-06T20:26:46.628Z,101078.88
2023-05-06T20:29:13.829Z,101083.97
2023-05-06T20:31:40.888Z,101081.50
2023-05-06T20:34:11.065Z,101080.13
2023-05-06T20:36:45.714Z,101073.41
2023-05-06T20:39:14.221Z,101077.66
2023-05-06T20:41:49.149Z,101079.91
2023-05-06T20:44:19.239Z,101084.06
2023-05-06T20:46:48.089Z,101079.53
2023-05-06T20:49:18.342Z,101074.69
2023-05-06T20:51:56.379Z,101070.97
2023-05-06T20:54:32.474Z,101070.63
2023-05-06T20:57:08.489Z,101070.84
2023-05-06T20:59:37.649Z,101068.59
2023-05-06T21:02:05.594Z,101080.06
2023-05-06T21:04:33.174Z,101084.78
2023-05-06T21:07:00.554Z,101081.31
2023-05-06T21:09:28.718Z,101088.72
2023-05-06T21:11:58.360Z,101092.91
2023-05-06T21:14:28.906Z,101087.88
2023-05-06T21:17:02.762Z,101083.56
2023-05-06T21:19:30.878Z,101091.06
2023-05-06T21:22:05.380Z,101094.75
2023-05-06T21:24:32.973Z,101085.28
2023-05-06T21:27:10.072Z,101099.41
2023-05-06T21:29:41.630Z,101098.03
2023-05-06T21:32:09.076Z,101092.63
2023-05-06T21:34:36.249Z,101093.56
2023-05-06T21:37:04.553Z,101096.59
2023-05-06T21:39:31.680Z,101096.31
2023-05-06T21:41:58.959Z,101101.47
2023-05-06T21:44:26.471Z,101097.34
2023-05-06T21:46:53.733Z,101088.22
2023-05-06T21:49:22.481Z,101091.69
2023-05-06T21:51:49.658Z,101091.34
2023-05-06T21:54:18.189Z,101089.97
2023-05-06T21:56:45.488Z,101096.41
2023-05-06T21:59:17.522Z,101098.81
2023-05-06T22:01:45.397Z,101106.81
2023-05-06T22:04:14.711Z,101096.16
2023-05-06T22:06:44.834Z,101099.94
2023-05-06T22:09:14.893Z,101093.75
2023-05-06T22:11:42.994Z,101101.56
2023-05-06T22:14:19.809Z,101087.38
2023-05-06T22:16:49.152Z,101094.09
2023-05-06T22:19:16.431Z,101103.50
2023-05-06T22:21:48.192Z,101104.19
2023-05-06T22:24:15.364Z,101104.34
2023-05-06T22:26:48.569Z,101109.00
2023-05-06T22:29:15.929Z,101108.56
2023-05-06T22:31:43.245Z,101117.31
2023-05-06T22:34:10.134Z,101116.97
2023-05-06T22:36:45.636Z,101123.78
2023-05-06T22:39:13.708Z,101115.72
2023-05-06T22:41:45.663Z,101117.69
2023-05-06T22:44:14.087Z,101115.84
2023-05-06T22:46:41.333Z,101114.66
2023-05-06T22:49:08.408Z,101108.50
2023-05-06T22:51:36.103Z,101112.91
2023-05-06T22:54:10.562Z,101120.84
2023-05-06T22:56:43.343Z,101121.03
2023-05-06T22:59:11.857Z,101123.44
2023-05-06T23:01:39.044Z,101120.69
2023-05-06T23:04:12.119Z,101115.44
2023-05-06T23:06:42.683Z,101125.41
2023-05-06T23:09:11.757Z,101118.88
2023-05-06T23:11:40.503Z,101122.50
2023-05-06T23:14:09.605Z,101119.38
2023-05-06T23:16:36.622Z,101118.66
2023-05-06T23:19:03.577Z,101119.16
2023-05-06T23:21:31.903Z,101110.19
2023-05-06T23:23:58.845Z,101115.78
2023-05-06T23:26:26.818Z,101111.50
2023-05-06T23:28:53.904Z,101116.41
2023-05-06T23:31:21.390Z,101107.06
2023-05-06T23:33:49.588Z,101099.03
2023-05-06T23:36:20.031Z,101104.06
2023-05-06T23:38:47.179Z,101104.63
2023-05-06T23:41:17.609Z,101102.59
2023-05-06T23:43:44.621Z,101105.06
2023-05-06T23:46:11.799Z,101106.50
2023-05-06T23:48:38.900Z,101105.69
2023-05-06T23:51:05.909Z,101112.69
2023-05-06T23:53:33.468Z,101110.06
2023-05-06T23:56:00.680Z,101114.81
2023-05-06T23:58:27.674Z,101114.34
